sensor_id;sensor_type;location;lat;lon;timestamp;temperature;humidity
8043;DHT22;4064;48.132;11.366;2023-01-15T00:00:38;7.80;83.60
8043;DHT22;4064;48.132;11.366;2023-01-15T00:03:04;7.70;83.40
8043;DHT22;4064;48.132;11.366;2023-01-15T00:05:29;7.70;83.90
8043;DHT22;4064;48.132;11.366;2023-01-15T00:07:55;7.70;84.60
8043;DHT22;4064;48.132;11.366;2023-01-15T00:10:21;7.70;83.50
8043;DHT22;4064;48.132;11.366;2023-01-15T00:12:46;7.70;84.30
8043;DHT22;4064;48.132;11.366;2023-01-15T00:15:12;7.70;83.60
8043;DHT22;4064;48.132;11.366;2023-01-15T00:17:37;7.80;83.40
8043;DHT22;4064;48.132;11.366;2023-01-15T00:20:03;7.80;83.00
8043;DHT22;4064;48.132;11.366;2023-01-15T00:22:29;7.70;82.90
8043;DHT22;4064;48.132;11.366;2023-01-15T00:24:55;7.70;82.80
8043;DHT22;4064;48.132;11.366;2023-01-15T00:27:39;7.70;82.60
8043;DHT22;4064;48.132;11.366;2023-01-15T00:30:08;7.70;82.60
8043;DHT22;4064;48.132;11.366;2023-01-15T00:32:34;7.70;82.50
8043;DHT22;4064;48.132;11.366;2023-01-15T00:35:00;7.80;82.20
8043;DHT22;4064;48.132;11.366;2023-01-15T00:37:26;7.80;81.70
8043;DHT22;4064;48.132;11.366;2023-01-15T00:39:52;7.80;81.80
8043;DHT22;4064;48.132;11.366;2023-01-15T00:42:17;7.80;81.10
8043;DHT22;4064;48.132;11.366;2023-01-15T00:44:43;7.70;81.80
8043;DHT22;4064;48.132;11.366;2023-01-15T00:47:09;7.70;81.70
8043;DHT22;4064;48.132;11.366;2023-01-15T00:49:42;7.70;82.40
8043;DHT22;4064;48.132;11.366;2023-01-15T00:52:08;7.60;82.30
8043;DHT22;4064;48.132;11.366;2023-01-15T00:54:34;7.50;83.20
8043;DHT22;4064;48.132;11.366;2023-01-15T00:57:00;7.50;83.60
8043;DHT22;4064;48.132;11.366;2023-01-15T00:59:26;7.40;84.00
8043;DHT22;4064;48.132;11.366;2023-01-15T01:01:51;7.30;84.40
8043;DHT22;4064;48.132;11.366;2023-01-15T01:04:17;7.20;83.90
8043;DHT22;4064;48.132;11.366;2023-01-15T01:06:43;7.30;83.50
8043;DHT22;4064;48.132;11.366;2023-01-15T01:09:15;7.30;83.20
8043;DHT22;4064;48.132;11.366;2023-01-15T01:11:41;7.40;83.40
8043;DHT22;4064;48.132;11.366;2023-01-15T01:14:08;7.30;83.10
8043;DHT22;4064;48.132;11.366;2023-01-15T01:16:37;7.40;83.20
8043;DHT22;4064;48.132;11.366;2023-01-15T01:19:15;7.40;83.70
8043;DHT22;4064;48.132;11.366;2023-01-15T01:21:42;7.40;83.80
8043;DHT22;4064;48.132;11.366;2023-01-15T01:24:14;7.40;84.30
8043;DHT22;4064;48.132;11.366;2023-01-15T01:26:40;7.40;84.80
8043;DHT22;4064;48.132;11.366;2023-01-15T01:29:05;7.30;85.20
8043;DHT22;4064;48.132;11.366;2023-01-15T01:31:31;7.20;86.90
8043;DHT22;4064;48.132;11.366;2023-01-15T01:33:58;7.10;87.50
8043;DHT22;4064;48.132;11.366;2023-01-15T01:36:31;7.00;89.10
8043;DHT22;4064;48.132;11.366;2023-01-15T01:38:58;7.00;89.70
8043;DHT22;4064;48.132;11.366;2023-01-15T01:41:23;6.90;90.30
8043;DHT22;4064;48.132;11.366;2023-01-15T01:43:58;6.90;90.70
8043;DHT22;4064;48.132;11.366;2023-01-15T01:46:25;6.80;90.60
8043;DHT22;4064;48.132;11.366;2023-01-15T01:48:55;6.80;90.90
8043;DHT22;4064;48.132;11.366;2023-01-15T01:51:24;6.80;91.50
8043;DHT22;4064;48.132;11.366;2023-01-15T01:53:51;6.70;91.70
8043;DHT22;4064;48.132;11.366;2023-01-15T01:56:17;6.70;91.40
8043;DHT22;4064;48.132;11.366;2023-01-15T01:58:47;6.70;91.70
8043;DHT22;4064;48.132;11.366;2023-01-15T02:01:16;6.70;91.50
8043;DHT22;4064;48.132;11.366;2023-01-15T02:03:42;6.70;91.40
8043;DHT22;4064;48.132;11.366;2023-01-15T02:06:09;6.70;91.20
8043;DHT22;4064;48.132;11.366;2023-01-15T02:08:36;6.80;91.20
8043;DHT22;4064;48.132;11.366;2023-01-15T02:11:04;6.80;91.20
8043;DHT22;4064;48.132;11.366;2023-01-15T02:13:43;6.80;91.20
8043;DHT22;4064;48.132;11.366;2023-01-15T02:21:41;6.90;90.70
8043;DHT22;4064;48.132;11.366;2023-01-15T02:24:21;6.90;90.30
8043;DHT22;4064;48.132;11.366;2023-01-15T02:27:19;6.90;90.10
8043;DHT22;4064;48.132;11.366;2023-01-15T02:32:39;7.00;89.70
8043;DHT22;4064;48.132;11.366;2023-01-15T02:35:18;7.10;89.00
8043;DHT22;4064;48.132;11.366;2023-01-15T02:37:50;7.10;89.10
8043;DHT22;4064;48.132;11.366;2023-01-15T02:40:20;7.10;88.80
8043;DHT22;4064;48.132;11.366;2023-01-15T02:42:48;7.10;88.90
8043;DHT22;4064;48.132;11.366;2023-01-15T02:45:18;7.10;88.70
8043;DHT22;4064;48.132;11.366;2023-01-15T02:47:51;7.20;88.60
8043;DHT22;4064;48.132;11.366;2023-01-15T02:50:22;7.30;88.50
8043;DHT22;4064;48.132;11.366;2023-01-15T02:52:54;7.30;88.60
8043;DHT22;4064;48.132;11.366;2023-01-15T02:55:24;7.40;88.40
8043;DHT22;4064;48.132;11.366;2023-01-15T02:57:54;7.40;88.30
8043;DHT22;4064;48.132;11.366;2023-01-15T03:00:21;7.40;88.50
8043;DHT22;4064;48.132;11.366;2023-01-15T03:03:10;7.50;88.60
8043;DHT22;4064;48.132;11.366;2023-01-15T03:05:41;7.50;89.00
8043;DHT22;4064;48.132;11.366;2023-01-15T03:08:08;7.50;89.00
8043;DHT22;4064;48.132;11.366;2023-01-15T03:10:47;7.60;89.10
8043;DHT22;4064;48.132;11.366;2023-01-15T03:13:47;7.60;89.00
8043;DHT22;4064;48.132;11.366;2023-01-15T03:16:21;7.60;89.00
8043;DHT22;4064;48.132;11.366;2023-01-15T03:22:02;7.60;90.30
8043;DHT22;4064;48.132;11.366;2023-01-15T03:24:43;7.50;90.60
8043;DHT22;4064;48.132;11.366;2023-01-15T03:27:11;7.40;90.80
8043;DHT22;4064;48.132;11.366;2023-01-15T03:29:40;7.40;91.30
8043;DHT22;4064;48.132;11.366;2023-01-15T03:32:06;7.30;91.00
8043;DHT22;4064;48.132;11.366;2023-01-15T03:34:49;7.40;90.90
8043;DHT22;4064;48.132;11.366;2023-01-15T03:37:15;7.40;91.10
8043;DHT22;4064;48.132;11.366;2023-01-15T03:39:41;7.40;91.20
8043;DHT22;4064;48.132;11.366;2023-01-15T03:56:06;7.50;90.90
8043;DHT22;4064;48.132;11.366;2023-01-15T03:58:43;7.60;90.90
8043;DHT22;4064;48.132;11.366;2023-01-15T04:01:16;7.60;90.90
8043;DHT22;4064;48.132;11.366;2023-01-15T04:03:44;7.60;91.00
8043;DHT22;4064;48.132;11.366;2023-01-15T04:06:10;7.60;90.70
8043;DHT22;4064;48.132;11.366;2023-01-15T04:08:41;7.60;90.70
8043;DHT22;4064;48.132;11.366;2023-01-15T04:11:07;7.60;91.10
8043;DHT22;4064;48.132;11.366;2023-01-15T04:13:33;7.60;90.80
8043;DHT22;4064;48.132;11.366;2023-01-15T04:15:59;7.60;90.90
8043;DHT22;4064;48.132;11.366;2023-01-15T04:18:25;7.60;91.00
8043;DHT22;4064;48.132;11.366;2023-01-15T04:20:51;7.70;91.00
8043;DHT22;4064;48.132;11.366;2023-01-15T04:23:16;7.60;91.50
8043;DHT22;4064;48.132;11.366;2023-01-15T04:25:42;7.60;91.50
8043;DHT22;4064;48.132;11.366;2023-01-15T04:28:08;7.60;91.70
8043;DHT22;4064;48.132;11.366;2023-01-15T04:30:35;7.60;91.80
8043;DHT22;4064;48.132;11.366;2023-01-15T04:33:01;7.50;92.00
8043;DHT22;4064;48.132;11.366;2023-01-15T04:35:27;7.50;91.70
8043;DHT22;4064;48.132;11.366;2023-01-15T04:37:57;7.60;91.70
8043;DHT22;4064;48.132;11.366;2023-01-15T04:40:23;7.60;91.60
8043;DHT22;4064;48.132;11.366;2023-01-15T04:43:10;7.60;91.90
8043;DHT22;4064;48.132;11.366;2023-01-15T04:45:55;7.60;91.80
8043;DHT22;4064;48.132;11.366;2023-01-15T04:48:20;7.60;91.70
8043;DHT22;4064;48.132;11.366;2023-01-15T04:50:46;7.60;92.20
8043;DHT22;4064;48.132;11.366;2023-01-15T04:53:12;7.50;92.30
8043;DHT22;4064;48.132;11.366;2023-01-15T04:55:37;7.60;92.30
8043;DHT22;4064;48.132;11.366;2023-01-15T04:58:03;7.60;93.00
8043;DHT22;4064;48.132;11.366;2023-01-15T05:00:28;7.50;93.00
8043;DHT22;4064;48.132;11.366;2023-01-15T05:02:54;7.60;93.00
8043;DHT22;4064;48.132;11.366;2023-01-15T05:05:20;7.60;93.10
8043;DHT22;4064;48.132;11.366;2023-01-15T05:07:45;7.70;93.30
8043;DHT22;4064;48.132;11.366;2023-01-15T05:10:11;7.80;93.60
8043;DHT22;4064;48.132;11.366;2023-01-15T05:12:36;8.00;93.60
8043;DHT22;4064;48.132;11.366;2023-01-15T05:15:02;8.10;93.40
8043;DHT22;4064;48.132;11.366;2023-01-15T05:17:28;8.30;93.60
8043;DHT22;4064;48.132;11.366;2023-01-15T05:19:53;8.40;93.40
8043;DHT22;4064;48.132;11.366;2023-01-15T05:22:19;8.60;93.40
8043;DHT22;4064;48.132;11.366;2023-01-15T05:24:44;8.70;93.10
8043;DHT22;4064;48.132;11.366;2023-01-15T05:27:10;8.80;93.30
8043;DHT22;4064;48.132;11.366;2023-01-15T05:29:36;8.90;93.30
8043;DHT22;4064;48.132;11.366;2023-01-15T05:32:01;9.00;93.50
8043;DHT22;4064;48.132;11.366;2023-01-15T05:34:27;9.20;93.50
8043;DHT22;4064;48.132;11.366;2023-01-15T05:36:52;9.30;93.60
8043;DHT22;4064;48.132;11.366;2023-01-15T05:39:18;9.50;93.80
8043;DHT22;4064;48.132;11.366;2023-01-15T05:41:44;9.70;93.90
8043;DHT22;4064;48.132;11.366;2023-01-15T05:44:22;9.80;93.80
8043;DHT22;4064;48.132;11.366;2023-01-15T05:46:49;9.90;94.00
8043;DHT22;4064;48.132;11.366;2023-01-15T05:49:18;10.00;93.60
8043;DHT22;4064;48.132;11.366;2023-01-15T05:51:44;10.10;93.90
8043;DHT22;4064;48.132;11.366;2023-01-15T05:54:13;10.20;94.00
8043;DHT22;4064;48.132;11.366;2023-01-15T05:56:39;10.30;94.30
8043;DHT22;4064;48.132;11.366;2023-01-15T05:59:06;10.40;94.20
8043;DHT22;4064;48.132;11.366;2023-01-15T06:01:32;10.50;94.40
8043;DHT22;4064;48.132;11.366;2023-01-15T06:04:02;10.50;94.30
8043;DHT22;4064;48.132;11.366;2023-01-15T06:06:28;10.60;94.50
8043;DHT22;4064;48.132;11.366;2023-01-15T06:08:54;10.60;94.50
8043;DHT22;4064;48.132;11.366;2023-01-15T06:11:20;10.60;94.50
8043;DHT22;4064;48.132;11.366;2023-01-15T06:13:46;10.70;94.50
8043;DHT22;4064;48.132;11.366;2023-01-15T06:16:11;10.70;94.40
8043;DHT22;4064;48.132;11.366;2023-01-15T06:18:38;10.80;94.20
8043;DHT22;4064;48.132;11.366;2023-01-15T06:21:09;10.80;94.30
8043;DHT22;4064;48.132;11.366;2023-01-15T06:23:35;10.90;94.40
8043;DHT22;4064;48.132;11.366;2023-01-15T06:26:12;10.90;94.40
8043;DHT22;4064;48.132;11.366;2023-01-15T06:28:38;11.00;94.50
8043;DHT22;4064;48.132;11.366;2023-01-15T06:31:05;11.00;94.90
8043;DHT22;4064;48.132;11.366;2023-01-15T06:33:30;11.00;94.70
8043;DHT22;4064;48.132;11.366;2023-01-15T06:35:56;10.90;94.80
8043;DHT22;4064;48.132;11.366;2023-01-15T06:38:22;11.00;94.90
8043;DHT22;4064;48.132;11.366;2023-01-15T06:40:47;10.90;95.00
8043;DHT22;4064;48.132;11.366;2023-01-15T06:43:13;10.90;95.30
8043;DHT22;4064;48.132;11.366;2023-01-15T06:45:57;10.90;95.40
8043;DHT22;4064;48.132;11.366;2023-01-15T06:48:41;10.80;95.50
8043;DHT22;4064;48.132;11.366;2023-01-15T06:51:07;10.80;95.70
8043;DHT22;4064;48.132;11.366;2023-01-15T06:53:33;10.70;95.70
8043;DHT22;4064;48.132;11.366;2023-01-15T06:56:00;10.80;95.80
8043;DHT22;4064;48.132;11.366;2023-01-15T06:58:26;10.80;96.00
8043;DHT22;4064;48.132;11.366;2023-01-15T07:00:52;10.80;96.20
8043;DHT22;4064;48.132;11.366;2023-01-15T07:03:21;10.80;96.20
8043;DHT22;4064;48.132;11.366;2023-01-15T07:05:47;10.90;96.40
8043;DHT22;4064;48.132;11.366;2023-01-15T07:08:12;10.80;96.40
8043;DHT22;4064;48.132;11.366;2023-01-15T07:10:38;10.90;96.40
8043;DHT22;4064;48.132;11.366;2023-01-15T07:13:03;10.90;96.40
8043;DHT22;4064;48.132;11.366;2023-01-15T07:15:29;10.90;96.40
8043;DHT22;4064;48.132;11.366;2023-01-15T07:17:56;10.90;96.50
8043;DHT22;4064;48.132;11.366;2023-01-15T07:20:21;11.00;96.60
8043;DHT22;4064;48.132;11.366;2023-01-15T07:22:51;11.00;96.70
8043;DHT22;4064;48.132;11.366;2023-01-15T07:25:17;10.90;96.70
8043;DHT22;4064;48.132;11.366;2023-01-15T07:27:45;10.90;96.90
8043;DHT22;4064;48.132;11.366;2023-01-15T07:30:11;10.90;96.90
8043;DHT22;4064;48.132;11.366;2023-01-15T07:32:37;10.90;96.90
8043;DHT22;4064;48.132;11.366;2023-01-15T07:35:02;10.90;96.90
8043;DHT22;4064;48.132;11.366;2023-01-15T07:37:28;10.90;96.90
8043;DHT22;4064;48.132;11.366;2023-01-15T07:39:54;10.90;96.80
8043;DHT22;4064;48.132;11.366;2023-01-15T07:42:21;10.90;96.90
8043;DHT22;4064;48.132;11.366;2023-01-15T07:45:08;10.90;96.80
8043;DHT22;4064;48.132;11.366;2023-01-15T07:47:53;10.90;96.60
8043;DHT22;4064;48.132;11.366;2023-01-15T07:50:37;10.90;96.50
8043;DHT22;4064;48.132;11.366;2023-01-15T07:53:03;11.00;96.90
8043;DHT22;4064;48.132;11.366;2023-01-15T07:55:28;10.90;96.90
8043;DHT22;4064;48.132;11.366;2023-01-15T07:57:54;10.90;96.80
8043;DHT22;4064;48.132;11.366;2023-01-15T08:00:21;10.90;96.60
8043;DHT22;4064;48.132;11.366;2023-01-15T08:02:48;10.90;96.60
8043;DHT22;4064;48.132;11.366;2023-01-15T08:05:15;10.90;96.40
8043;DHT22;4064;48.132;11.366;2023-01-15T08:07:41;11.00;96.40
8043;DHT22;4064;48.132;11.366;2023-01-15T08:10:09;11.00;96.40
8043;DHT22;4064;48.132;11.366;2023-01-15T08:12:35;11.00;96.30
8043;DHT22;4064;48.132;11.366;2023-01-15T08:15:19;11.00;96.40
8043;DHT22;4064;48.132;11.366;2023-01-15T08:17:47;11.10;96.50
8043;DHT22;4064;48.132;11.366;2023-01-15T08:20:20;11.00;96.50
8043;DHT22;4064;48.132;11.366;2023-01-15T08:22:46;11.10;96.60
8043;DHT22;4064;48.132;11.366;2023-01-15T08:25:17;11.10;96.60
8043;DHT22;4064;48.132;11.366;2023-01-15T08:27:44;11.10;96.60
8043;DHT22;4064;48.132;11.366;2023-01-15T08:30:15;11.20;96.70
8043;DHT22;4064;48.132;11.366;2023-01-15T08:32:42;11.20;96.80
8043;DHT22;4064;48.132;11.366;2023-01-15T08:35:08;11.20;96.80
8043;DHT22;4064;48.132;11.366;2023-01-15T08:37:34;11.20;96.90
8043;DHT22;4064;48.132;11.366;2023-01-15T08:40:00;11.20;96.70
8043;DHT22;4064;48.132;11.366;2023-01-15T08:42:25;11.30;96.80
8043;DHT22;4064;48.132;11.366;2023-01-15T08:44:51;11.30;96.70
8043;DHT22;4064;48.132;11.366;2023-01-15T08:47:17;11.30;96.70
8043;DHT22;4064;48.132;11.366;2023-01-15T08:49:43;11.40;96.70
8043;DHT22;4064;48.132;11.366;2023-01-15T08:52:09;11.40;96.70
8043;DHT22;4064;48.132;11.366;2023-01-15T08:54:34;11.40;96.40
8043;DHT22;4064;48.132;11.366;2023-01-15T08:57:00;11.40;96.30
8043;DHT22;4064;48.132;11.366;2023-01-15T08:59:26;11.40;96.00
8043;DHT22;4064;48.132;11.366;2023-01-15T09:01:52;11.50;95.80
8043;DHT22;4064;48.132;11.366;2023-01-15T09:04:20;11.50;96.00
8043;DHT22;4064;48.132;11.366;2023-01-15T09:09:50;11.50;95.00
8043;DHT22;4064;48.132;11.366;2023-01-15T09:12:15;11.60;94.70
8043;DHT22;4064;48.132;11.366;2023-01-15T09:14:41;11.70;94.30
8043;DHT22;4064;48.132;11.366;2023-01-15T09:17:07;11.80;94.10
8043;DHT22;4064;48.132;11.366;2023-01-15T09:19:32;11.90;93.80
8043;DHT22;4064;48.132;11.366;2023-01-15T09:21:58;12.00;93.50
8043;DHT22;4064;48.132;11.366;2023-01-15T09:24:23;12.00;93.40
8043;DHT22;4064;48.132;11.366;2023-01-15T09:26:49;12.10;93.30
8043;DHT22;4064;48.132;11.366;2023-01-15T09:29:17;12.20;92.90
8043;DHT22;4064;48.132;11.366;2023-01-15T09:31:43;12.30;92.80
8043;DHT22;4064;48.132;11.366;2023-01-15T09:34:08;12.40;92.30
8043;DHT22;4064;48.132;11.366;2023-01-15T09:36:35;12.50;92.30
8043;DHT22;4064;48.132;11.366;2023-01-15T09:39:03;12.60;92.20
8043;DHT22;4064;48.132;11.366;2023-01-15T09:47:47;12.80;91.60
8043;DHT22;4064;48.132;11.366;2023-01-15T09:55:27;13.00;91.20
8043;DHT22;4064;48.132;11.366;2023-01-15T09:57:57;13.00;90.90
8043;DHT22;4064;48.132;11.366;2023-01-15T10:00:25;12.90;90.90
8043;DHT22;4064;48.132;11.366;2023-01-15T10:03:22;12.90;90.90
8043;DHT22;4064;48.132;11.366;2023-01-15T10:08:46;11.80;93.40
8043;DHT22;4064;48.132;11.366;2023-01-15T10:13:51;9.90;95.80
8043;DHT22;4064;48.132;11.366;2023-01-15T10:16:24;9.50;96.60
8043;DHT22;4064;48.132;11.366;2023-01-15T10:18:51;9.10;96.60
8043;DHT22;4064;48.132;11.366;2023-01-15T10:26:56;8.00;97.50
8043;DHT22;4064;48.132;11.366;2023-01-15T10:29:42;7.80;98.30
8043;DHT22;4064;48.132;11.366;2023-01-15T10:32:21;7.70;98.70
8043;DHT22;4064;48.132;11.366;2023-01-15T10:45:59;7.10;99.90
8043;DHT22;4064;48.132;11.366;2023-01-15T10:48:45;7.00;99.90
8043;DHT22;4064;48.132;11.366;2023-01-15T10:51:20;6.90;99.90
8043;DHT22;4064;48.132;11.366;2023-01-15T10:53:58;6.80;99.90
8043;DHT22;4064;48.132;11.366;2023-01-15T10:56:33;6.70;99.90
8043;DHT22;4064;48.132;11.366;2023-01-15T10:59:22;6.60;99.90
8043;DHT22;4064;48.132;11.366;2023-01-15T11:01:53;6.60;99.90
8043;DHT22;4064;48.132;11.366;2023-01-15T11:04:20;6.60;99.90
8043;DHT22;4064;48.132;11.366;2023-01-15T11:06:45;6.50;99.90
8043;DHT22;4064;48.132;11.366;2023-01-15T11:09:20;6.50;99.90
8043;DHT22;4064;48.132;11.366;2023-01-15T11:11:49;6.40;99.90
8043;DHT22;4064;48.132;11.366;2023-01-15T11:14:35;6.40;99.90
8043;DHT22;4064;48.132;11.366;2023-01-15T11:17:21;6.40;99.90
8043;DHT22;4064;48.132;11.366;2023-01-15T11:20:33;6.30;99.90
8043;DHT22;4064;48.132;11.366;2023-01-15T11:23:12;6.30;99.90
8043;DHT22;4064;48.132;11.366;2023-01-15T11:25:52;6.30;99.90
8043;DHT22;4064;48.132;11.366;2023-01-15T11:28:36;6.20;99.90
8043;DHT22;4064;48.132;11.366;2023-01-15T11:31:08;6.10;99.90
8043;DHT22;4064;48.132;11.366;2023-01-15T11:33:34;6.00;99.90
8043;DHT22;4064;48.132;11.366;2023-01-15T11:36:03;6.00;99.90
8043;DHT22;4064;48.132;11.366;2023-01-15T11:38:41;6.00;99.90
8043;DHT22;4064;48.132;11.366;2023-01-15T11:41:21;5.90;99.90
8043;DHT22;4064;48.132;11.366;2023-01-15T11:43:55;5.90;99.90
8043;DHT22;4064;48.132;11.366;2023-01-15T11:46:56;5.80;99.90
8043;DHT22;4064;48.132;11.366;2023-01-15T11:49:49;5.70;99.90
8043;DHT22;4064;48.132;11.366;2023-01-15T11:52:37;5.60;99.90
8043;DHT22;4064;48.132;11.366;2023-01-15T11:55:10;5.50;99.90
8043;DHT22;4064;48.132;11.366;2023-01-15T11:57:38;5.60;99.90
8043;DHT22;4064;48.132;11.366;2023-01-15T12:00:05;5.50;99.90
8043;DHT22;4064;48.132;11.366;2023-01-15T12:02:37;5.50;99.90
8043;DHT22;4064;48.132;11.366;2023-01-15T12:05:19;5.50;99.90
8043;DHT22;4064;48.132;11.366;2023-01-15T12:07:47;5.50;99.90
8043;DHT22;4064;48.132;11.366;2023-01-15T12:10:24;5.40;99.90
8043;DHT22;4064;48.132;11.366;2023-01-15T12:16:29;5.50;99.90
8043;DHT22;4064;48.132;11.366;2023-01-15T12:29:44;5.40;99.90
8043;DHT22;4064;48.132;11.366;2023-01-15T12:32:17;5.40;99.90
8043;DHT22;4064;48.132;11.366;2023-01-15T12:35:06;5.40;99.90
8043;DHT22;4064;48.132;11.366;2023-01-15T12:37:34;5.40;99.90
8043;DHT22;4064;48.132;11.366;2023-01-15T12:42:41;5.40;99.90
8043;DHT22;4064;48.132;11.366;2023-01-15T12:45:30;5.30;99.90
8043;DHT22;4064;48.132;11.366;2023-01-15T12:47:57;5.30;99.90
8043;DHT22;4064;48.132;11.366;2023-01-15T12:53:19;5.30;99.90
8043;DHT22;4064;48.132;11.366;2023-01-15T12:58:38;5.30;99.90
8043;DHT22;4064;48.132;11.366;2023-01-15T13:01:28;5.30;99.90
8043;DHT22;4064;48.132;11.366;2023-01-15T13:04:33;5.30;99.90
8043;DHT22;4064;48.132;11.366;2023-01-15T13:12:19;5.20;99.90
8043;DHT22;4064;48.132;11.366;2023-01-15T13:14:45;5.20;99.90
8043;DHT22;4064;48.132;11.366;2023-01-15T13:20:27;5.10;99.90
8043;DHT22;4064;48.132;11.366;2023-01-15T13:31:06;5.00;99.90
8043;DHT22;4064;48.132;11.366;2023-01-15T13:33:46;4.90;99.90
8043;DHT22;4064;48.132;11.366;2023-01-15T13:36:23;4.90;99.90
8043;DHT22;4064;48.132;11.366;2023-01-15T13:38:52;4.90;99.90
8043;DHT22;4064;48.132;11.366;2023-01-15T13:41:24;4.90;99.90
8043;DHT22;4064;48.132;11.366;2023-01-15T13:44:16;4.90;99.90
8043;DHT22;4064;48.132;11.366;2023-01-15T13:46:43;4.90;99.90
8043;DHT22;4064;48.132;11.366;2023-01-15T13:49:20;4.90;99.90
8043;DHT22;4064;48.132;11.366;2023-01-15T13:51:48;4.90;99.90
8043;DHT22;4064;48.132;11.366;2023-01-15T13:54:18;4.90;99.90
8043;DHT22;4064;48.132;11.366;2023-01-15T13:56:45;5.00;99.90
8043;DHT22;4064;48.132;11.366;2023-01-15T13:59:46;4.90;99.90
8043;DHT22;4064;48.132;11.366;2023-01-15T14:04:52;4.90;99.90
8043;DHT22;4064;48.132;11.366;2023-01-15T14:07:34;4.90;99.90
8043;DHT22;4064;48.132;11.366;2023-01-15T14:10:23;4.80;99.90
8043;DHT22;4064;48.132;11.366;2023-01-15T14:16:03;4.70;99.90
8043;DHT22;4064;48.132;11.366;2023-01-15T14:19:02;4.60;99.90
8043;DHT22;4064;48.132;11.366;2023-01-15T14:29:54;4.50;99.90
8043;DHT22;4064;48.132;11.366;2023-01-15T14:32:45;4.40;99.90
8043;DHT22;4064;48.132;11.366;2023-01-15T14:35:19;4.30;99.90
8043;DHT22;4064;48.132;11.366;2023-01-15T14:40:31;4.10;99.90
8043;DHT22;4064;48.132;11.366;2023-01-15T14:43:01;4.00;99.90
8043;DHT22;4064;48.132;11.366;2023-01-15T14:48:10;3.90;99.90
8043;DHT22;4064;48.132;11.366;2023-01-15T14:50:42;3.80;99.90
8043;DHT22;4064;48.132;11.366;2023-01-15T14:55:54;3.60;99.90
8043;DHT22;4064;48.132;11.366;2023-01-15T15:00:59;3.50;99.90
8043;DHT22;4064;48.132;11.366;2023-01-15T15:03:35;3.40;99.90
8043;DHT22;4064;48.132;11.366;2023-01-15T15:06:03;3.20;99.90
8043;DHT22;4064;48.132;11.366;2023-01-15T15:08:30;3.20;99.90
8043;DHT22;4064;48.132;11.366;2023-01-15T15:10:59;3.10;99.90
8043;DHT22;4064;48.132;11.366;2023-01-15T15:13:35;3.00;99.90
8043;DHT22;4064;48.132;11.366;2023-01-15T15:16:25;3.00;99.90
8043;DHT22;4064;48.132;11.366;2023-01-15T15:19:00;3.00;99.90
8043;DHT22;4064;48.132;11.366;2023-01-15T15:21:31;2.90;99.90
8043;DHT22;4064;48.132;11.366;2023-01-15T15:24:02;2.90;99.90
8043;DHT22;4064;48.132;11.366;2023-01-15T15:26:34;2.90;99.90
8043;DHT22;4064;48.132;11.366;2023-01-15T15:31:55;3.00;99.90
8043;DHT22;4064;48.132;11.366;2023-01-15T15:34:36;3.00;99.90
8043;DHT22;4064;48.132;11.366;2023-01-15T15:37:15;3.00;99.90
8043;DHT22;4064;48.132;11.366;2023-01-15T15:40:01;3.00;99.90
8043;DHT22;4064;48.132;11.366;2023-01-15T15:42:33;3.10;99.90
8043;DHT22;4064;48.132;11.366;2023-01-15T15:45:25;3.10;99.90
8043;DHT22;4064;48.132;11.366;2023-01-15T15:48:29;3.10;99.90
8043;DHT22;4064;48.132;11.366;2023-01-15T15:51:31;3.10;99.90
8043;DHT22;4064;48.132;11.366;2023-01-15T15:54:26;3.10;99.90
8043;DHT22;4064;48.132;11.366;2023-01-15T16:01:57;3.10;99.90
8043;DHT22;4064;48.132;11.366;2023-01-15T16:04:26;3.10;99.90
8043;DHT22;4064;48.132;11.366;2023-01-15T16:06:52;3.10;99.90
8043;DHT22;4064;48.132;11.366;2023-01-15T16:09:22;3.10;99.90
8043;DHT22;4064;48.132;11.366;2023-01-15T16:11:49;3.10;99.90
8043;DHT22;4064;48.132;11.366;2023-01-15T16:14:17;3.10;99.90
8043;DHT22;4064;48.132;11.366;2023-01-15T16:16:44;3.10;99.90
8043;DHT22;4064;48.132;11.366;2023-01-15T16:19:19;3.10;99.90
8043;DHT22;4064;48.132;11.366;2023-01-15T16:21:47;3.00;99.90
8043;DHT22;4064;48.132;11.366;2023-01-15T16:24:27;3.00;99.90
8043;DHT22;4064;48.132;11.366;2023-01-15T16:27:07;3.10;99.90
8043;DHT22;4064;48.132;11.366;2023-01-15T16:29:36;3.10;99.90
8043;DHT22;4064;48.132;11.366;2023-01-15T16:32:24;3.10;99.90
8043;DHT22;4064;48.132;11.366;2023-01-15T16:35:05;3.10;99.90
8043;DHT22;4064;48.132;11.366;2023-01-15T16:37:32;3.10;99.90
8043;DHT22;4064;48.132;11.366;2023-01-15T16:40:02;3.10;99.90
8043;DHT22;4064;48.132;11.366;2023-01-15T16:42:38;3.10;99.90
8043;DHT22;4064;48.132;11.366;2023-01-15T16:45:22;3.10;99.90
8043;DHT22;4064;48.132;11.366;2023-01-15T16:48:01;3.10;99.90
8043;DHT22;4064;48.132;11.366;2023-01-15T16:50:38;3.10;99.90
8043;DHT22;4064;48.132;11.366;2023-01-15T16:53:05;3.00;99.90
8043;DHT22;4064;48.132;11.366;2023-01-15T17:00:44;3.00;99.90
8043;DHT22;4064;48.132;11.366;2023-01-15T17:03:24;3.00;99.90
8043;DHT22;4064;48.132;11.366;2023-01-15T17:06:01;3.00;99.90
8043;DHT22;4064;48.132;11.366;2023-01-15T17:08:36;3.00;99.90
8043;DHT22;4064;48.132;11.366;2023-01-15T17:11:04;3.00;99.90
8043;DHT22;4064;48.132;11.366;2023-01-15T17:13:34;3.00;99.90
8043;DHT22;4064;48.132;11.366;2023-01-15T17:16:13;3.00;99.90
8043;DHT22;4064;48.132;11.366;2023-01-15T17:18:40;3.00;99.90
8043;DHT22;4064;48.132;11.366;2023-01-15T17:21:06;3.00;99.90
8043;DHT22;4064;48.132;11.366;2023-01-15T17:23:36;2.90;99.90
8043;DHT22;4064;48.132;11.366;2023-01-15T17:26:06;2.90;99.90
8043;DHT22;4064;48.132;11.366;2023-01-15T17:28:31;2.80;99.90
8043;DHT22;4064;48.132;11.366;2023-01-15T17:30:59;2.80;99.90
8043;DHT22;4064;48.132;11.366;2023-01-15T17:33:25;2.80;99.90
8043;DHT22;4064;48.132;11.366;2023-01-15T17:35:51;2.90;99.90
8043;DHT22;4064;48.132;11.366;2023-01-15T17:38:18;2.80;99.90
8043;DHT22;4064;48.132;11.366;2023-01-15T17:40:43;2.90;99.90
8043;DHT22;4064;48.132;11.366;2023-01-15T17:43:13;2.80;99.90
8043;DHT22;4064;48.132;11.366;2023-01-15T17:45:40;2.80;99.90
8043;DHT22;4064;48.132;11.366;2023-01-15T17:48:06;2.80;99.90
8043;DHT22;4064;48.132;11.366;2023-01-15T17:50:37;2.80;99.90
8043;DHT22;4064;48.132;11.366;2023-01-15T17:53:05;2.80;99.90
8043;DHT22;4064;48.132;11.366;2023-01-15T17:55:31;2.80;99.90
8043;DHT22;4064;48.132;11.366;2023-01-15T17:58:15;2.80;99.90
8043;DHT22;4064;48.132;11.366;2023-01-15T18:01:03;2.80;99.90
8043;DHT22;4064;48.132;11.366;2023-01-15T18:03:50;2.80;99.90
8043;DHT22;4064;48.132;11.366;2023-01-15T18:06:35;2.70;99.90
8043;DHT22;4064;48.132;11.366;2023-01-15T18:09:04;2.70;99.90
8043;DHT22;4064;48.132;11.366;2023-01-15T18:11:31;2.70;99.90
8043;DHT22;4064;48.132;11.366;2023-01-15T18:13:57;2.70;99.90
8043;DHT22;4064;48.132;11.366;2023-01-15T18:16:23;2.70;99.90
8043;DHT22;4064;48.132;11.366;2023-01-15T18:18:52;2.70;99.90
8043;DHT22;4064;48.132;11.366;2023-01-15T18:21:18;2.70;99.90
8043;DHT22;4064;48.132;11.366;2023-01-15T18:23:44;2.70;99.90
8043;DHT22;4064;48.132;11.366;2023-01-15T18:26:09;2.70;99.90
8043;DHT22;4064;48.132;11.366;2023-01-15T18:28:36;2.70;99.90
8043;DHT22;4064;48.132;11.366;2023-01-15T18:31:03;2.70;99.90
8043;DHT22;4064;48.132;11.366;2023-01-15T18:33:29;2.70;99.90
8043;DHT22;4064;48.132;11.366;2023-01-15T18:36:10;2.70;99.90
8043;DHT22;4064;48.132;11.366;2023-01-15T18:38:37;2.60;99.90
8043;DHT22;4064;48.132;11.366;2023-01-15T18:41:18;2.60;99.90